Time;durP1;ratioP1;P1;durP2;ratioP2;P2;SDS_P1;SDS_P2;PMS_P1;PMS_P2;Temp;Humidity;BMP_temperature;BMP_pressure;BME280_temperature;BME280_humidity;BME280_pressure;Samples;Min_cycle;Max_cycle;Signal;HPM_P1;HPM_P2
2022/04/30 00:02:13;;;;;;;4.10;3.60;;;17.10;53.50;;;17.70;39.61;99086.13;5011891;28;124354;-92
2022/04/30 00:04:46;;;;;;;5.53;3.70;;;17.10;53.60;;;17.69;39.63;99087.28;4976076;28;124366;-92
2022/04/30 00:07:16;;;;;;;3.73;3.37;;;17.10;53.80;;;17.67;39.96;99080.06;4986206;28;109577;-92
2022/04/30 00:09:45;;;;;;;3.37;3.00;;;17.10;53.90;;;17.65;39.95;99087.16;4958938;28;108973;-92
2022/04/30 00:12:12;;;;;;;3.93;3.33;;;17.00;53.90;;;17.63;40.08;99084.75;4968558;28;123088;-92
2022/04/30 00:14:40;;;;;;;4.03;3.70;;;17.00;54.00;;;17.61;40.06;99087.06;4986893;28;124576;-92
2022/04/30 00:17:07;;;;;;;3.70;3.40;;;17.00;54.10;;;17.61;40.26;99089.84;4969242;28;109287;-92
2022/04/30 00:19:33;;;;;;;4.23;3.40;;;17.00;54.20;;;17.58;40.08;99087.78;4970773;28;109140;-93
2022/04/30 00:22:00;;;;;;;5.37;3.67;;;17.00;54.40;;;17.55;40.25;99094.06;4973646;28;123984;-93
2022/04/30 00:24:27;;;;;;;5.20;3.83;;;16.90;54.30;;;17.53;40.46;99099.19;4968123;28;124394;-92
2022/04/30 00:27:01;;;;;;;3.40;3.10;;;16.90;54.40;;;17.50;40.39;99102.69;4977368;28;109386;-95
2022/04/30 00:29:29;;;;;;;5.33;4.20;;;16.90;54.50;;;17.47;40.60;99108.97;4986651;28;108798;-92
2022/04/30 00:31:57;;;;;;;4.50;4.10;;;16.90;54.80;;;17.40;40.51;99100.38;4971987;28;123326;-92
2022/04/30 00:34:23;;;;;;;4.40;4.00;;;16.80;54.60;;;17.27;40.38;99105.13;4991805;28;123709;-91
2022/04/30 00:36:50;;;;;;;6.23;5.00;;;16.70;54.50;;;17.15;40.65;99097.59;4969718;28;109170;-93
2022/04/30 00:39:16;;;;;;;5.10;4.60;;;16.60;54.40;;;17.01;40.68;99102.72;4969311;28;108428;-91
2022/04/30 00:41:45;;;;;;;5.37;4.70;;;16.50;54.40;;;16.88;40.75;99106.66;4969346;28;123869;-92
2022/04/30 00:44:20;;;;;;;7.03;4.50;;;16.40;54.30;;;16.76;40.89;99102.66;4970333;28;122774;-92
2022/04/30 00:46:47;;;;;;;5.83;5.20;;;16.30;54.50;;;16.65;40.98;99098.66;4968962;28;109786;-91
2022/04/30 00:49:14;;;;;;;5.23;4.73;;;16.20;54.60;;;16.59;41.03;99104.81;4987238;28;109046;-92
2022/04/30 00:51:44;;;;;;;5.73;4.37;;;16.20;54.80;;;16.50;41.18;99097.38;4961915;28;124263;-92
2022/04/30 00:54:20;;;;;;;6.10;5.20;;;16.10;55.00;;;16.41;41.57;99109.75;4973404;28;122643;-92
2022/04/30 00:56:58;;;;;;;4.90;4.40;;;16.00;55.10;;;16.29;41.68;99105.78;4970326;28;108764;-93
2022/04/30 00:59:26;;;;;;;7.00;5.40;;;15.90;55.50;;;16.18;41.98;99104.56;4978308;28;109258;-92
2022/04/30 01:01:52;;;;;;;6.33;4.93;;;15.80;55.70;;;16.13;41.94;99102.00;4976132;28;123882;-92
2022/04/30 01:04:19;;;;;;;6.03;5.10;;;15.70;55.70;;;16.08;42.35;99099.41;4976518;28;123832;-91
2022/04/30 01:07:07;;;;;;;9.80;6.70;;;15.60;56.00;;;16.01;42.52;99104.72;4963412;28;108958;-93
2022/04/30 01:09:39;;;;;;;7.27;5.90;;;15.60;56.60;;;15.92;43.24;99109.56;4972046;28;109089;-93
2022/04/30 01:12:13;;;;;;;7.37;6.03;;;15.50;57.10;;;15.84;43.62;99106.50;4969565;28;124136;-92
2022/04/30 01:14:41;;;;;;;6.73;6.13;;;15.40;57.40;;;15.76;43.83;99110.16;4970367;28;124193;-92
2022/04/30 01:17:10;;;;;;;11.07;7.90;;;15.40;58.10;;;15.72;44.25;99114.00;4961919;28;108782;-94
2022/04/30 01:19:41;;;;;;;9.50;7.40;;;15.30;58.40;;;15.63;44.63;99100.88;4953567;28;108114;-91
2022/04/30 01:22:33;;;;;;;8.53;7.10;;;15.20;58.90;;;15.57;45.05;99105.03;4995149;28;124717;-93
2022/04/30 01:25:05;;;;;;;12.30;8.00;;;15.10;59.70;;;15.50;45.70;99115.06;4968434;28;123316;-91
2022/04/30 01:27:35;;;;;;;10.33;8.70;;;15.10;60.10;;;15.44;46.24;99108.88;4970456;28;108965;-91
2022/04/30 01:30:06;;;;;;;12.93;9.43;;;15.00;61.10;;;15.39;46.64;99103.50;4984333;28;109098;-91
2022/04/30 01:38:07;;;;;;;13.70;10.10;;;14.90;62.50;;;15.25;47.16;99096.22;4970386;28;111215;-92
2022/04/30 01:40:34;;;;;;;13.87;10.40;;;14.80;63.20;;;15.21;47.71;99095.28;4962689;28;109945;-92
2022/04/30 01:43:02;;;;;;;15.50;10.87;;;14.80;64.00;;;15.15;47.98;99090.22;4985513;28;122403;-93
2022/04/30 01:45:29;;;;;;;18.77;11.60;;;14.70;64.50;;;15.10;48.49;99093.19;4960828;28;122161;-92
2022/04/30 01:47:59;;;;;;;16.13;11.40;;;14.60;65.20;;;15.06;48.60;99087.50;4965938;28;108592;-92
2022/04/30 01:50:26;;;;;;;21.60;13.97;;;14.60;65.50;;;14.99;49.97;99084.41;4967559;28;108994;-91
2022/04/30 01:52:53;;;;;;;17.50;12.67;;;14.50;68.30;;;14.92;50.06;99084.94;4962141;28;123982;-92
2022/04/30 01:55:19;;;;;;;20.30;13.17;;;15.10;68.80;;;14.85;49.88;99079.06;4960871;28;123719;-91
2022/04/30 01:57:46;;;;;;;14.03;11.17;;;14.40;68.30;;;14.83;50.12;99074.97;4958501;28;108437;-93
2022/04/30 02:00:14;;;;;;;16.90;12.17;;;14.40;69.00;;;14.80;50.27;99074.53;4959429;28;109752;-92
2022/04/30 02:02:46;;;;;;;16.37;11.87;;;14.40;69.10;;;14.78;50.51;99068.47;4965892;28;124758;-93
2022/04/30 02:05:16;;;;;;;21.53;12.60;;;14.30;69.80;;;14.76;50.64;99072.75;4961095;28;124247;-92
2022/04/30 02:07:58;;;;;;;18.37;12.10;;;14.30;70.50;;;14.72;51.09;99064.25;4974573;28;109053;-92
2022/04/30 02:10:27;;;;;;;16.60;12.70;;;14.30;71.30;;;14.66;51.14;99073.09;5000392;28;109982;-91
2022/04/30 02:12:54;;;;;;;16.83;11.90;;;14.20;71.50;;;14.64;51.34;99072.59;4968106;28;122914;-92
2022/04/30 02:15:21;;;;;;;18.67;12.47;;;14.20;72.00;;;14.62;51.66;99066.59;4972052;28;123768;-92
2022/04/30 02:17:49;;;;;;;15.70;10.80;;;14.20;72.40;;;14.57;51.36;99065.59;4971533;28;109219;-92
2022/04/30 02:20:28;;;;;;;16.83;10.70;;;14.10;72.40;;;14.58;51.34;99072.78;4967322;28;109127;-93
2022/04/30 02:23:01;;;;;;;18.47;11.57;;;14.10;72.50;;;14.59;51.75;99068.06;4964081;28;124174;-92
2022/04/30 02:25:30;;;;;;;15.00;11.93;;;14.10;73.30;;;14.58;51.61;99063.63;4963594;28;122777;-92
2022/04/30 02:27:59;;;;;;;16.83;11.53;;;14.10;73.50;;;14.56;51.60;99071.47;4969308;28;108642;-94
2022/04/30 02:30:27;;;;;;;21.30;12.00;;;14.10;73.70;;;14.55;52.00;99079.00;4967175;28;109357;-93
2022/04/30 02:32:57;;;;;;;16.50;11.10;;;14.10;74.20;;;14.54;52.05;99076.59;4963448;28;122241;-92
2022/04/30 02:35:28;;;;;;;16.83;12.07;;;14.10;74.70;;;14.51;52.23;99072.47;4967444;28;123028;-91
2022/04/30 02:37:59;;;;;;;14.00;11.00;;;14.00;74.80;;;14.51;52.16;99072.47;4968810;28;109891;-93
2022/04/30 02:40:28;;;;;;;17.07;12.27;;;14.00;75.10;;;14.49;52.50;99069.19;4972784;28;108891;-94
2022/04/30 02:43:01;;;;;;;13.53;10.80;;;14.00;75.80;;;14.49;52.28;99076.72;4968385;28;124034;-93
2022/04/30 02:45:28;;;;;;;13.50;10.60;;;14.00;76.00;;;14.47;52.51;99068.72;4956845;28;123602;-92
2022/04/30 02:47:55;;;;;;;12.97;9.50;;;14.00;76.20;;;14.46;52.46;99063.50;4950231;28;110019;-93
2022/04/30 02:50:22;;;;;;;15.87;12.30;;;14.00;76.20;;;14.45;53.29;99070.19;4963729;28;109093;-93
2022/04/30 02:52:50;;;;;;;14.93;10.43;;;14.00;77.70;;;14.45;52.79;99068.22;4967018;28;124029;-93
2022/04/30 02:55:17;;;;;;;14.37;10.57;;;13.90;77.30;;;14.43;52.76;99064.97;4968490;28;123150;-93
2022/04/30 03:00:42;;;;;;;13.40;9.20;;;13.90;77.40;;;14.39;52.78;99066.78;4972259;28;109519;-94
2022/04/30 03:03:12;;;;;;;16.37;10.77;;;13.90;77.50;;;14.35;53.21;99061.06;4978421;28;124444;-93
2022/04/30 03:05:42;;;;;;;17.73;11.83;;;13.90;78.30;;;14.32;53.46;99069.25;4978357;28;124436;-92
2022/04/30 03:08:12;;;;;;;19.13;11.00;;;13.90;78.60;;;14.28;53.65;99077.44;4973012;28;108299;-91
2022/04/30 03:10:41;;;;;;;13.23;11.43;;;13.80;79.10;;;14.24;53.50;99067.28;4995621;28;108028;-93
2022/04/30 03:13:08;;;;;;;12.40;9.70;;;13.80;79.20;;;14.24;53.60;99073.69;4967718;28;124435;-93
2022/04/30 03:15:36;;;;;;;14.53;10.20;;;13.70;79.30;;;14.22;53.71;99073.19;4959681;28;123031;-92
2022/04/30 03:23:32;;;;;;;17.60;12.27;;;13.70;80.50;;;14.10;54.48;99068.31;4974243;28;124646;-93
2022/04/30 03:25:59;;;;;;;21.37;12.47;;;13.60;80.90;;;14.05;54.73;99068.50;4973033;28;123779;-92
2022/04/30 03:28:25;;;;;;;16.70;12.17;;;13.60;81.30;;;14.03;54.71;99076.34;4965189;28;109722;-92
2022/04/30 03:30:52;;;;;;;16.03;12.13;;;13.60;81.40;;;14.02;54.61;99073.88;4946093;28;108868;-92
2022/04/30 03:33:18;;;;;;;17.97;12.37;;;13.50;81.50;;;14.01;54.74;99081.41;4949795;28;124862;-92
2022/04/30 03:35:45;;;;;;;16.97;12.00;;;13.50;81.50;;;14.01;54.60;99081.41;4962721;28;122879;-93
2022/04/30 03:38:11;;;;;;;16.77;11.90;;;13.50;81.60;;;14.01;54.70;99086.94;4971081;28;108925;-94
2022/04/30 03:40:41;;;;;;;20.17;12.90;;;13.50;81.90;;;14.01;54.72;99086.13;4971474;28;109169;-94
2022/04/30 03:43:07;;;;;;;15.50;11.60;;;13.50;82.20;;;14.01;54.80;99086.94;4970588;28;124227;-92
2022/04/30 03:45:35;;;;;;;14.57;11.50;;;13.50;82.20;;;14.01;54.89;99086.94;4970135;28;123728;-93
2022/04/30 03:48:01;;;;;;;19.63;12.10;;;13.50;82.80;;;14.02;54.93;99088.56;5004467;28;109270;-93
2022/04/30 03:50:28;;;;;;;18.03;12.87;;;13.50;82.60;;;14.01;54.91;99092.50;4982028;28;110095;-94
2022/04/30 03:52:54;;;;;;;17.53;12.40;;;13.50;83.00;;;14.00;55.11;99090.88;4969098;28;124080;-93
2022/04/30 03:55:21;;;;;;;16.70;11.53;;;13.50;83.10;;;14.02;55.02;99093.31;4992248;28;122863;-94
2022/04/30 03:57:48;;;;;;;13.97;11.20;;;13.50;83.00;;;14.02;55.13;99091.34;4985658;28;109287;-95
2022/04/30 04:00:16;;;;;;;20.00;13.40;;;13.50;83.20;;;14.01;55.20;99097.25;4970458;28;109974;-93
2022/04/30 04:02:43;;;;;;;18.80;13.20;;;13.50;83.50;;;13.98;55.45;99093.16;4989091;28;122996;-93
2022/04/30 04:05:12;;;;;;;20.27;15.10;;;13.50;84.00;;;13.97;55.58;99102.66;4971171;28;124047;-94
2022/04/30 04:07:40;;;;;;;24.40;16.13;;;13.40;84.00;;;13.95;55.93;99104.94;4971321;28;110441;-92
2022/04/30 04:10:09;;;;;;;21.17;15.23;;;13.40;85.30;;;13.91;55.84;99103.94;4970569;28;110103;-93
2022/04/30 04:12:37;;;;;;;32.47;17.00;;;13.40;84.90;;;13.86;56.24;99112.44;4969410;28;124956;-92
2022/04/30 04:17:50;;;;;;;20.90;14.03;;;13.30;85.00;;;13.81;56.13;99110.66;4955560;28;109134;-94
2022/04/30 04:20:18;;;;;;;17.97;12.87;;;13.30;85.30;;;13.81;56.59;99107.88;4984273;28;110104;-93
2022/04/30 04:22:46;;;;;;;18.80;12.40;;;13.30;85.30;;;13.83;56.11;99107.53;4962274;28;124066;-93
2022/04/30 04:27:58;;;;;;;18.67;13.73;;;13.30;85.70;;;13.78;56.31;99103.00;4972115;28;109945;-92
2022/04/30 04:30:30;;;;;;;20.07;14.13;;;13.30;85.70;;;13.74;56.47;99113.09;4989936;28;109588;-93
2022/04/30 04:32:58;;;;;;;23.53;14.60;;;13.20;86.10;;;13.73;56.66;99114.25;4984717;28;124050;-92
2022/04/30 04:35:26;;;;;;;19.53;15.03;;;13.20;86.20;;;13.72;56.85;99117.34;4975620;28;123222;-93
2022/04/30 04:37:54;;;;;;;17.37;13.07;;;13.20;86.40;;;13.70;56.65;99120.44;4973657;28;108402;-93
2022/04/30 04:40:20;;;;;;;25.43;15.87;;;13.20;86.60;;;13.69;57.53;99118.81;4974326;28;109943;-93
2022/04/30 04:42:47;;;;;;;24.40;15.87;;;13.20;88.30;;;13.66;57.37;99120.28;4973101;28;123865;-92
2022/04/30 04:45:14;;;;;;;20.63;14.97;;;13.20;87.40;;;13.64;57.08;99136.44;4975638;28;124233;-94
2022/04/30 04:47:45;;;;;;;19.67;13.20;;;13.10;87.40;;;13.66;57.12;99131.38;4976504;28;109292;-93
2022/04/30 04:50:14;;;;;;;19.30;13.87;;;13.10;87.30;;;13.63;57.22;99134.00;4980741;28;108011;-92
2022/04/30 04:52:42;;;;;;;19.17;12.43;;;13.10;87.50;;;13.61;57.13;99145.41;5007983;28;123252;-93
2022/04/30 04:55:09;;;;;;;16.00;12.83;;;13.10;87.40;;;13.63;57.13;99137.59;4966387;28;123350;-93
2022/04/30 04:57:37;;;;;;;15.63;12.50;;;13.10;87.60;;;13.61;57.51;99142.63;4972017;28;110804;-93
2022/04/30 05:00:06;;;;;;;18.00;13.03;;;13.10;87.80;;;13.64;57.38;99138.41;4974456;28;109304;-93
2022/04/30 05:02:32;;;;;;;16.53;12.60;;;11.90;86.80;;;13.64;57.41;99138.41;4959580;28;123844;-92
2022/04/30 05:04:59;;;;;;;21.03;14.33;;;13.20;88.20;;;13.65;57.75;99140.06;4972418;28;123824;-94
2022/04/30 05:07:26;;;;;;;20.43;14.80;;;13.10;88.40;;;13.61;58.05;99136.28;4974109;28;109209;-92
2022/04/30 05:09:53;;;;;;;22.00;15.70;;;13.10;89.00;;;13.56;58.30;99145.56;4987825;28;109954;-93
2022/04/30 05:12:20;;;;;;;20.40;14.33;;;13.00;89.50;;;13.52;58.57;99146.56;4957608;28;122749;-94
2022/04/30 05:14:48;;;;;;;20.07;15.23;;;13.00;89.40;;;13.48;58.41;99149.16;4965139;28;123124;-93
2022/04/30 05:17:15;;;;;;;17.97;13.80;;;13.00;89.60;;;13.46;58.27;99160.59;4953110;28;109066;-93
2022/04/30 05:19:41;;;;;;;22.27;14.57;;;13.00;89.60;;;13.46;58.45;99170.88;4970660;28;109737;-93
2022/04/30 05:22:08;;;;;;;24.73;13.60;;;13.90;90.20;;;13.43;58.56;99177.06;4985345;28;124017;-92
2022/04/30 05:24:53;;;;;;;15.43;12.07;;;12.90;89.70;;;13.45;58.32;99172.00;4975439;28;123736;-93
2022/04/30 05:27:20;;;;;;;14.13;11.00;;;12.90;89.70;;;13.46;58.44;99173.66;4962735;28;109196;-94
2022/04/30 05:29:46;;;;;;;15.27;11.30;;;12.90;89.80;;;13.48;58.25;99174.94;4954223;28;109248;-93
2022/04/30 05:32:14;;;;;;;16.00;11.90;;;13.00;90.00;;;13.50;58.52;99176.59;4955952;28;124002;-94
2022/04/30 05:34:40;;;;;;;14.53;11.10;;;13.10;90.00;;;13.48;58.19;99174.94;4960577;28;123830;-93
2022/04/30 05:37:07;;;;;;;20.20;12.57;;;12.90;90.00;;;13.48;58.38;99180.50;4962133;28;114612;-93
2022/04/30 05:39:34;;;;;;;12.77;10.60;;;13.50;90.30;;;13.51;58.34;99179.03;4959771;28;113814;-93
2022/04/30 05:42:01;;;;;;;21.10;13.90;;;13.00;90.00;;;13.54;58.61;99189.53;4964856;28;124211;-91
2022/04/30 05:44:28;;;;;;;16.43;12.00;;;13.00;90.20;;;13.53;58.64;99182.31;4956430;28;123857;-92
2022/04/30 05:46:54;;;;;;;14.47;10.70;;;13.00;90.20;;;13.55;58.58;99184.78;4954384;28;115433;-93
2022/04/30 05:49:21;;;;;;;12.93;9.33;;;13.00;90.20;;;13.56;58.53;99181.66;4955137;28;115120;-91
2022/04/30 05:51:49;;;;;;;15.53;10.70;;;13.00;90.20;;;13.58;58.44;99184.94;4952908;28;123978;-92
2022/04/30 05:54:16;;;;;;;14.70;10.50;;;13.10;90.30;;;13.62;58.42;99185.09;4952007;28;123042;-92
2022/04/30 05:56:42;;;;;;;13.10;9.90;;;13.30;90.40;;;13.63;58.48;99182.00;4951292;28;113599;-94
2022/04/30 05:59:09;;;;;;;10.37;8.70;;;13.00;90.30;;;13.67;58.60;99184.94;4952902;28;113257;-93
2022/04/30 06:01:35;;;;;;;15.60;10.03;;;13.10;90.30;;;13.70;58.49;99185.13;4950975;28;123344;-93
2022/04/30 06:04:02;;;;;;;15.73;10.67;;;13.10;90.40;;;13.74;58.46;99190.03;4962401;28;122813;-92
2022/04/30 06:06:29;;;;;;;14.63;11.17;;;13.10;90.40;;;13.70;58.56;99193.47;4970218;28;113357;-93
2022/04/30 06:08:56;;;;;;;13.37;10.90;;;13.10;90.40;;;13.71;58.54;99185.94;4965972;28;113929;-93
2022/04/30 06:11:22;;;;;;;15.03;11.60;;;13.10;90.40;;;13.72;58.54;99182.03;4968867;28;124166;-93
2022/04/30 06:13:49;;;;;;;14.13;10.80;;;13.10;90.50;;;13.71;58.69;99191.50;4968292;28;122792;-93
2022/04/30 06:16:16;;;;;;;14.47;10.83;;;13.10;90.50;;;13.70;58.50;99187.06;4954450;28;113987;-92
2022/04/30 06:18:43;;;;;;;11.97;9.97;;;13.10;90.50;;;13.67;58.76;99191.34;4980075;28;113117;-93
2022/04/30 06:21:11;;;;;;;14.17;11.20;;;13.10;90.50;;;13.67;58.90;99191.34;4954725;28;123191;-93
2022/04/30 06:23:37;;;;;;;14.93;11.30;;;13.10;90.60;;;13.66;58.97;99188.88;4960822;28;123115;-93
2022/04/30 06:26:04;;;;;;;16.33;11.30;;;13.10;90.70;;;13.67;58.95;99187.72;4963165;28;113348;-93
2022/04/30 06:28:30;;;;;;;14.20;11.40;;;13.10;91.10;;;13.66;59.26;99192.47;4964875;28;113855;-93
2022/04/30 06:30:59;;;;;;;14.83;10.83;;;13.10;90.80;;;13.69;59.01;99191.00;4969234;28;123892;-94
2022/04/30 06:33:29;;;;;;;13.03;10.23;;;13.10;90.90;;;13.72;59.11;99198.69;4969217;28;123769;-93
2022/04/30 06:35:55;;;;;;;12.23;9.03;;;13.10;90.90;;;13.78;58.96;99193.78;4950821;28;114527;-92
2022/04/30 06:38:22;;;;;;;15.03;10.80;;;13.40;91.10;;;13.81;58.97;99191.19;4953418;28;115353;-93
2022/04/30 06:40:49;;;;;;;11.90;9.70;;;13.70;91.20;;;13.86;58.77;99199.38;4971088;28;124022;-93
2022/04/30 06:43:15;;;;;;;16.53;9.40;;;13.20;91.00;;;13.92;58.89;99205.59;4968528;28;123972;-94
2022/04/30 06:45:42;;;;;;;10.33;9.07;;;13.20;91.00;;;13.97;58.90;99205.44;4954841;28;113663;-94
2022/04/30 06:48:09;;;;;;;10.50;8.43;;;13.30;91.00;;;14.01;58.75;99198.06;4964219;28;113609;-93
2022/04/30 06:50:36;;;;;;;13.47;9.60;;;13.30;91.00;;;14.03;58.75;99206.91;4969840;28;126008;-92
2022/04/30 06:58:41;;;;;;;14.43;10.47;;;13.60;91.20;;;14.01;58.87;99214.75;4971897;28;113776;-94
2022/04/30 07:03:50;;;;;;;12.80;10.40;;;13.50;91.20;;;14.00;59.04;99213.13;4971759;28;124004;-92
2022/04/30 07:06:18;;;;;;;12.40;10.20;;;13.40;91.20;;;14.03;59.19;99212.47;4972789;28;113969;-92
2022/04/30 07:08:45;;;;;;;14.30;11.07;;;13.40;91.20;;;14.04;58.99;99214.09;5001833;28;113697;-93
2022/04/30 07:11:11;;;;;;;12.40;9.67;;;13.40;91.20;;;14.04;59.18;99210.50;4969542;28;123196;-92
2022/04/30 07:13:38;;;;;;;13.03;9.60;;;13.50;91.20;;;14.06;58.96;99214.59;4970334;28;122963;-93
2022/04/30 07:16:05;;;;;;;10.23;8.60;;;13.50;91.20;;;14.10;59.14;99220.31;4969900;28;114294;-92
2022/04/30 07:18:31;;;;;;;9.67;8.60;;;13.50;91.20;;;14.12;58.90;99216.06;4977589;28;114109;-92
2022/04/30 07:20:57;;;;;;;10.80;8.33;;;13.50;91.20;;;14.17;58.87;99211.50;4974867;28;124115;-93
2022/04/30 07:23:24;;;;;;;10.50;8.97;;;13.50;91.20;;;14.18;59.02;99224.25;4962053;28;124131;-94
2022/04/30 07:25:51;;;;;;;11.73;9.33;;;13.50;91.30;;;14.17;59.02;99214.28;4961890;28;114529;-92
2022/04/30 07:28:17;;;;;;;11.00;9.13;;;13.50;91.20;;;14.17;58.94;99219.84;4968211;28;115008;-92
2022/04/30 07:30:44;;;;;;;12.50;9.13;;;13.60;91.30;;;14.14;58.95;99216.56;4969277;28;124113;-93
2022/04/30 07:33:10;;;;;;;13.07;9.77;;;13.50;91.20;;;14.18;59.15;99213.13;4970666;28;123342;-93
2022/04/30 07:35:37;;;;;;;12.70;9.53;;;13.60;91.30;;;14.17;59.14;99222.63;4969544;28;113515;-92
2022/04/30 07:38:03;;;;;;;10.53;8.93;;;13.60;91.40;;;14.15;59.21;99223.75;5001553;28;114349;-92
2022/04/30 07:40:30;;;;;;;11.23;9.37;;;13.60;91.40;;;14.14;58.98;99219.34;4971406;28;123798;-92
2022/04/30 07:42:57;;;;;;;13.67;8.60;;;13.60;91.30;;;14.19;59.04;99228.66;4956092;28;123969;-93
2022/04/30 07:45:23;;;;;;;13.50;7.87;;;13.60;91.30;;;14.24;58.95;99223.78;4967122;28;113499;-94
2022/04/30 07:47:50;;;;;;;9.53;7.80;;;13.60;91.40;;;14.25;59.09;99227.34;4975090;28;112228;-91
2022/04/30 07:50:17;;;;;;;10.37;8.63;;;13.60;91.40;;;14.27;59.03;99227.84;4982836;28;124726;-93
2022/04/30 07:52:43;;;;;;;10.13;8.80;;;13.60;91.30;;;14.27;58.56;99222.31;4968836;28;123739;-93
2022/04/30 07:55:10;;;;;;;10.83;8.67;;;13.60;91.30;;;14.24;58.99;99223.78;4995238;28;114346;-93
2022/04/30 07:57:37;;;;;;;9.90;8.23;;;13.60;91.30;;;14.23;59.01;99232.41;4969029;28;114051;-93
2022/04/30 08:00:06;;;;;;;11.13;8.97;;;13.60;91.30;;;14.22;59.08;99231.59;4970564;28;123581;-92
2022/04/30 08:02:33;;;;;;;12.10;9.70;;;13.60;91.40;;;14.22;59.22;99222.47;4972951;28;124237;-92
2022/04/30 08:05:01;;;;;;;12.10;10.30;;;13.70;91.50;;;14.20;59.21;99219.19;4983413;28;114133;-92
2022/04/30 08:07:28;;;;;;;12.13;9.23;;;13.60;91.50;;;14.19;59.42;99223.13;4952143;28;113896;-92
2022/04/30 08:09:55;;;;;;;11.27;9.60;;;13.60;91.50;;;14.19;59.36;99231.44;4949365;28;123324;-94
2022/04/30 08:12:22;;;;;;;10.87;9.07;;;13.60;91.50;;;14.17;59.38;99222.63;4948943;28;124447;-93
2022/04/30 08:14:50;;;;;;;12.47;9.67;;;13.60;91.50;;;14.17;59.39;99236.50;4965157;28;115295;-94
2022/04/30 08:17:17;;;;;;;12.23;9.47;;;13.60;91.60;;;14.15;59.59;99236.81;4969426;28;115061;-93
2022/04/30 08:19:43;;;;;;;14.97;10.60;;;13.60;91.60;;;14.15;59.76;99237.63;4975047;28;124112;-92
2022/04/30 08:22:10;;;;;;;11.40;8.97;;;13.60;91.90;;;14.17;59.85;99236.50;4969753;28;123986;-93
2022/04/30 08:24:37;;;;;;;9.47;8.47;;;13.50;91.80;;;14.17;59.75;99233.72;4968887;28;113213;-94
2022/04/30 08:27:03;;;;;;;9.77;8.20;;;13.70;91.80;;;14.17;59.48;99239.28;4968044;28;114225;-93
2022/04/30 08:29:30;;;;;;;8.90;7.07;;;13.60;91.70;;;14.17;59.61;99233.72;4971592;28;124817;-92
2022/04/30 08:31:57;;;;;;;8.77;7.87;;;14.30;92.00;;;14.18;59.50;99244.50;4969102;28;123851;-92
2022/04/30 08:34:23;;;;;;;7.30;6.60;;;13.60;91.70;;;14.19;59.51;99245.34;4968303;28;114522;-94
2022/04/30 08:36:50;;;;;;;10.37;8.87;;;13.60;91.70;;;14.20;59.49;99244.19;4968912;28;113997;-92
2022/04/30 08:39:16;;;;;;;11.00;8.10;;;13.60;91.80;;;14.17;59.67;99245.66;4967546;28;123555;-93
2022/04/30 08:41:43;;;;;;;10.27;8.00;;;15.00;92.30;;;14.15;59.50;99248.75;4992057;28;124360;-93
2022/04/30 08:44:14;;;;;;;10.20;8.00;;;13.60;91.70;;;14.13;59.51;99256.63;4984763;28;113910;-93
2022/04/30 08:46:42;;;;;;;8.53;7.63;;;13.60;91.70;;;14.11;59.70;99245.00;4971315;28;114126;-93
2022/04/30 08:49:10;;;;;;;8.60;7.60;;;13.50;91.70;;;14.12;59.58;99249.41;4986131;28;123695;-92
2022/04/30 08:51:40;;;;;;;9.70;7.20;;;13.50;91.70;;;14.13;59.61;99251.06;4985289;28;124040;-94
2022/04/30 08:54:07;;;;;;;7.93;6.43;;;13.50;91.70;;;14.14;59.63;99252.69;4980935;28;113411;-93
2022/04/30 08:56:37;;;;;;;7.63;6.20;;;13.50;91.70;;;14.17;59.01;99250.41;4984504;28;112380;-92
2022/04/30 08:59:07;;;;;;;7.13;6.20;;;13.50;91.70;;;14.15;59.54;99248.75;4970169;28;122367;-91
2022/04/30 09:01:46;;;;;;;7.57;6.63;;;13.50;91.70;;;14.18;59.36;99252.03;4967662;28;123064;-93
2022/04/30 09:04:13;;;;;;;8.10;6.90;;;13.60;91.80;;;14.15;59.48;99245.97;4954531;28;115738;-91
2022/04/30 09:06:58;;;;;;;7.33;6.47;;;13.60;91.80;;;14.14;59.52;99251.88;4961412;28;114107;-92
2022/04/30 09:09:30;;;;;;;7.37;6.20;;;13.60;91.70;;;14.12;59.48;99246.63;4970419;28;124074;-92
2022/04/30 09:12:12;;;;;;;6.80;6.10;;;13.60;91.80;;;14.15;59.43;99245.16;4966538;28;124395;-89
2022/04/30 09:14:40;;;;;;;7.00;5.73;;;13.60;91.70;;;14.14;59.30;99247.13;4986486;28;113644;-92
2022/04/30 09:17:12;;;;;;;7.23;6.47;;;13.50;91.70;;;14.12;59.48;99248.59;4971704;28;113128;-91
2022/04/30 09:19:59;;;;;;;10.53;6.93;;;13.50;91.70;;;14.08;59.44;99251.22;4993707;28;123956;-92
2022/04/30 09:22:37;;;;;;;7.30;6.30;;;13.50;91.70;;;14.02;59.51;99246.94;4961231;28;123923;-92
2022/04/30 09:25:09;;;;;;;6.23;5.63;;;13.50;91.70;;;14.01;59.76;99252.84;4965410;28;113137;-92
2022/04/30 09:27:51;;;;;;;5.70;5.10;;;13.50;91.70;;;14.01;59.54;99241.72;4969775;28;116126;-91
2022/04/30 09:30:29;;;;;;;6.57;5.87;;;13.50;91.80;;;14.02;59.67;99249.72;4969912;28;124325;-91
2022/04/30 09:33:04;;;;;;;6.47;5.23;;;13.50;91.80;;;14.02;59.62;99244.16;5002059;28;124252;-93
2022/04/30 09:38:24;;;;;;;7.10;5.93;;;13.50;91.80;;;14.01;59.42;99250.88;4974804;28;114457;-91
2022/04/30 09:40:58;;;;;;;8.70;6.50;;;13.40;91.80;;;14.00;59.66;99254.00;4975963;28;124112;-91
2022/04/30 09:43:34;;;;;;;6.97;6.10;;;13.40;91.80;;;13.97;59.59;99247.13;4985651;28;123822;-91
2022/04/30 09:46:03;;;;;;;5.27;4.77;;;13.40;91.80;;;13.97;59.84;99252.66;4985908;28;114873;-92
2022/04/30 09:54:03;;;;;;;6.67;4.80;;;13.40;91.80;;;14.04;59.41;99244.66;4972155;28;125183;-90
2022/04/30 09:56:35;;;;;;;4.70;4.20;;;13.40;91.80;;;14.05;59.28;99240.75;4957422;28;114978;-91
2022/04/30 09:59:12;;;;;;;5.10;4.60;;;13.40;91.70;;;14.08;59.36;99240.09;4970816;28;115335;-91
2022/04/30 10:01:43;;;;;;;5.20;4.77;;;13.50;91.80;;;14.09;59.26;99247.28;4969471;28;124395;-90
2022/04/30 10:04:12;;;;;;;5.30;4.53;;;13.50;91.70;;;14.08;59.42;99242.88;5002040;28;124478;-91
2022/04/30 10:06:48;;;;;;;4.70;4.27;;;13.50;91.60;;;14.11;59.25;99242.22;4970660;28;114215;-90
2022/04/30 10:09:34;;;;;;;7.10;6.23;;;13.50;91.70;;;14.10;59.59;99248.94;4980614;28;114348;-92
2022/04/30 10:12:19;;;;;;;6.67;5.97;;;13.50;92.00;;;14.09;59.53;99244.50;4977322;28;124089;-91
2022/04/30 10:15:24;;;;;;;7.47;5.93;;;13.50;91.90;;;14.11;59.61;99245.00;4980465;28;122882;-90
2022/04/30 10:17:58;;;;;;;7.20;5.80;;;13.50;91.90;;;14.12;59.41;99235.50;4980598;28;114373;-90
2022/04/30 10:20:34;;;;;;;4.70;4.00;;;13.50;91.90;;;14.14;59.21;99230.44;4950100;28;114578;-91
2022/04/30 10:23:03;;;;;;;4.83;4.30;;;13.80;92.00;;;14.19;59.43;99237.81;4963241;28;123880;-92
2022/04/30 10:25:54;;;;;;;4.70;4.30;;;13.60;91.90;;;14.24;59.35;99234.88;4966754;28;124205;-91
2022/04/30 10:28:23;;;;;;;4.00;3.60;;;13.60;91.80;;;14.29;59.20;99231.94;4972596;28;112296;-90
2022/04/30 10:30:59;;;;;;;4.53;4.13;;;13.70;91.80;;;14.35;58.97;99229.81;4970100;28;114049;-90
2022/04/30 10:33:27;;;;;;;3.93;3.37;;;13.70;91.80;;;14.41;58.77;99233.25;4969979;28;124094;-92
2022/04/30 10:36:09;;;;;;;4.40;4.00;;;13.70;91.70;;;14.46;58.96;99231.13;4989619;28;124121;-91
2022/04/30 10:38:37;;;;;;;4.20;3.80;;;13.80;91.80;;;14.52;59.00;99224.28;4975665;28;114362;-90
2022/04/30 10:41:09;;;;;;;4.87;4.47;;;13.80;91.80;;;14.59;59.14;99226.56;4968015;28;115303;-91
2022/04/30 10:43:39;;;;;;;5.80;5.20;;;13.90;91.90;;;14.63;59.06;99223.94;4970970;28;124247;-90
2022/04/30 10:46:23;;;;;;;7.10;5.30;;;13.90;92.00;;;14.65;59.27;99227.22;4950263;28;122959;-89
2022/04/30 10:48:50;;;;;;;5.20;4.70;;;14.00;92.10;;;14.66;59.16;99229.66;4956800;28;114587;-91
2022/04/30 10:51:39;;;;;;;5.50;4.57;;;14.00;92.20;;;14.70;59.38;99230.66;4965981;28;115062;-91